Time;durP1;ratioP1;P1;durP2;ratioP2;P2;SDS_P1;SDS_P2;PMS_P1;PMS_P2;Temp;Humidity;BMP_temperature;BMP_pressure;BME280_temperature;BME280_humidity;BME280_pressure;Samples;Min_cycle;Max_cycle;Signal;HPM_P1;HPM_P2
2022/10/07 00:00:49;;;;;;;7.17;2.07;;;;;;;12.80;66.31;101836.78;5020123;28;20598;-61
2022/10/07 00:03:18;;;;;;;6.87;1.87;;;;;;;12.77;66.38;101834.38;5019568;28;20213;-62
2022/10/07 00:05:46;;;;;;;5.87;2.13;;;;;;;12.76;66.88;101830.00;5021031;28;20255;-62
2022/10/07 00:08:14;;;;;;;8.73;2.40;;;;;;;12.81;66.59;101830.50;5022325;28;22041;-60
2022/10/07 00:10:43;;;;;;;7.03;1.87;;;;;;;12.76;66.77;101825.53;5018848;28;20209;-59
2022/10/07 00:13:11;;;;;;;6.63;2.10;;;;;;;12.79;66.55;101838.59;5017150;28;20727;-61
2022/10/07 00:15:39;;;;;;;9.40;2.67;;;;;;;12.77;66.70;101837.88;5020327;28;20236;-60
2022/10/07 00:18:07;;;;;;;8.43;2.60;;;;;;;12.77;66.85;101837.03;5020373;28;21070;-60
2022/10/07 00:20:37;;;;;;;11.87;2.40;;;;;;;12.84;66.52;101834.72;5020382;28;20204;-60
2022/10/07 00:23:05;;;;;;;5.53;2.20;;;;;;;12.86;66.31;101833.59;5018690;28;20208;-61
2022/10/07 00:25:35;;;;;;;8.53;2.13;;;;;;;12.81;66.66;101827.84;5021570;28;20212;-60
2022/10/07 00:28:03;;;;;;;7.00;2.37;;;;;;;12.76;66.41;101822.88;5019999;28;20209;-61
2022/10/07 00:30:32;;;;;;;6.70;2.70;;;;;;;12.70;66.51;101819.91;5021066;28;20336;-61
2022/10/07 00:33:00;;;;;;;10.47;2.37;;;;;;;12.67;67.10;101826.31;5022447;28;20304;-62
2022/10/07 00:35:27;;;;;;;8.07;2.20;;;;;;;12.71;66.84;101817.09;5022498;28;20278;-62
2022/10/07 00:37:55;;;;;;;10.77;2.37;;;;;;;12.67;66.92;101812.16;5019881;28;20213;-61
2022/10/07 00:40:23;;;;;;;6.67;1.80;;;;;;;12.76;66.57;101814.91;5019197;28;20205;-61
2022/10/07 00:42:50;;;;;;;11.53;2.30;;;;;;;12.71;66.52;101811.78;5019685;28;20212;-61
2022/10/07 00:45:20;;;;;;;4.97;1.60;;;;;;;12.73;65.58;101814.31;5017358;28;20209;-60
2022/10/07 00:47:50;;;;;;;8.53;2.37;;;;;;;12.75;65.27;101807.06;5021075;28;20212;-60
2022/10/07 00:50:23;;;;;;;8.77;1.80;;;;;;;12.74;65.50;101816.03;5022037;28;20203;-61
2022/10/07 00:52:55;;;;;;;4.53;1.63;;;;;;;12.70;65.65;101802.09;5021629;28;20213;-62
2022/10/07 00:55:25;;;;;;;6.67;1.63;;;;;;;12.64;65.63;101801.78;5016857;28;20204;-61
2022/10/07 00:57:56;;;;;;;7.97;1.70;;;;;;;12.67;65.13;101799.69;5017791;28;20225;-61
2022/10/07 01:00:24;;;;;;;5.17;1.60;;;;;;;12.65;65.38;101799.00;5014651;28;20201;-61
2022/10/07 01:02:53;;;;;;;8.23;2.20;;;;;;;12.62;65.56;101798.41;5017430;28;20271;-61
2022/10/07 01:05:21;;;;;;;7.80;1.73;;;;;;;12.54;66.11;101795.56;5020226;28;20216;-61
2022/10/07 01:07:50;;;;;;;7.30;1.60;;;;;;;12.42;66.32;101800.91;5022154;28;20229;-60
2022/10/07 01:10:23;;;;;;;6.80;1.80;;;;;;;12.37;67.07;101797.81;5021454;28;20258;-61
2022/10/07 01:13:03;;;;;;;17.57;3.43;;;;;;;12.36;67.15;101798.78;5018926;28;20259;-60
2022/10/07 01:15:37;;;;;;;13.93;4.60;;;;;;;12.29;67.36;101792.28;5019743;28;20209;-59
2022/10/07 01:18:16;;;;;;;13.43;4.23;;;;;;;12.30;67.39;101786.00;5019192;28;20633;-61
2022/10/07 01:20:52;;;;;;;12.20;3.37;;;;;;;12.30;67.37;101788.66;5015939;28;20205;-61
2022/10/07 01:23:41;;;;;;;6.53;2.03;;;;;;;12.24;67.66;101785.63;5017605;28;20270;-62
2022/10/07 01:26:39;;;;;;;8.83;2.40;;;;;;;12.17;67.84;101782.66;5018338;28;20201;-62
2022/10/07 01:29:12;;;;;;;9.27;1.70;;;;;;;12.12;68.19;101778.69;5010743;28;20211;-59
2022/10/07 01:31:46;;;;;;;6.10;1.80;;;;;;;12.13;67.81;101772.41;5017533;28;20213;-59
2022/10/07 01:34:15;;;;;;;7.70;1.90;;;;;;;12.14;67.20;101771.44;5020123;28;20216;-59
2022/10/07 01:36:50;;;;;;;7.23;1.77;;;;;;;12.15;67.27;101765.13;5016114;28;20703;-60
2022/10/07 01:39:24;;;;;;;6.03;1.40;;;;;;;12.17;67.29;101760.53;5018488;28;21510;-61
2022/10/07 01:41:53;;;;;;;7.10;1.50;;;;;;;12.20;66.63;101757.63;5014437;28;20235;-59
2022/10/07 01:44:21;;;;;;;6.77;2.00;;;;;;;12.27;66.57;101754.31;5020492;28;20641;-60
2022/10/07 01:46:49;;;;;;;5.00;1.67;;;;;;;12.22;66.40;101756.53;5021472;28;20700;-60
2022/10/07 01:49:16;;;;;;;5.73;1.77;;;;;;;12.07;67.62;101750.66;5022645;28;20208;-61
2022/10/07 01:51:52;;;;;;;5.27;1.67;;;;;;;12.12;67.46;101744.13;5020121;28;20585;-60
2022/10/07 01:54:33;;;;;;;5.03;1.77;;;;;;;12.05;67.47;101743.75;5020943;28;20649;-60
2022/10/07 01:57:17;;;;;;;4.80;1.57;;;;;;;12.00;67.75;101740.66;5021025;28;20205;-61
2022/10/07 02:00:07;;;;;;;9.00;2.00;;;;;;;11.98;67.70;101739.94;5019940;28;20231;-62
2022/10/07 02:02:58;;;;;;;5.93;1.43;;;;;;;11.94;67.86;101742.00;5022488;28;20201;-59
2022/10/07 02:05:37;;;;;;;5.60;1.70;;;;;;;11.88;68.30;101736.34;5018708;28;20441;-61
2022/10/07 02:08:22;;;;;;;7.27;1.50;;;;;;;11.87;68.56;101734.66;5019491;28;20232;-60
2022/10/07 02:11:01;;;;;;;7.43;1.77;;;;;;;11.94;68.65;101736.69;5020503;28;20208;-61
2022/10/07 02:13:36;;;;;;;8.63;1.60;;;;;;;11.94;68.50;101735.84;5026033;28;20258;-59
2022/10/07 02:16:16;;;;;;;6.17;1.80;;;;;;;11.98;68.18;101737.28;5020466;28;20657;-62
2022/10/07 02:18:48;;;;;;;6.00;1.47;;;;;;;12.06;67.79;101740.13;5020983;28;20222;-61
2022/10/07 02:21:20;;;;;;;4.77;1.43;;;;;;;12.08;67.40;101724.91;5018778;28;20701;-61
2022/10/07 02:23:49;;;;;;;5.97;1.97;;;;;;;11.98;67.45;101726.63;5020323;28;20263;-61
2022/10/07 02:26:20;;;;;;;7.97;1.83;;;;;;;11.91;67.99;101726.31;5020719;28;20212;-62
2022/10/07 02:28:53;;;;;;;5.33;1.87;;;;;;;11.96;68.32;101728.59;5020421;28;20209;-59
2022/10/07 02:31:24;;;;;;;7.93;1.70;;;;;;;11.93;68.17;101723.53;5016572;28;21978;-59
2022/10/07 02:33:56;;;;;;;7.87;1.63;;;;;;;11.88;68.05;101721.22;5022307;28;20279;-63
2022/10/07 02:36:28;;;;;;;8.37;1.67;;;;;;;11.89;68.06;101717.59;5020188;28;20204;-60
2022/10/07 02:38:59;;;;;;;9.10;2.50;;;;;;;11.81;68.17;101709.41;5023625;28;20205;-59
2022/10/07 02:41:36;;;;;;;6.97;1.80;;;;;;;11.87;68.04;101702.78;5024928;28;20255;-59
2022/10/07 02:44:13;;;;;;;5.33;1.67;;;;;;;11.89;67.83;101695.50;5023824;28;20240;-60
2022/10/07 02:46:45;;;;;;;4.87;1.67;;;;;;;11.85;68.09;101702.06;5022940;28;20599;-60
2022/10/07 02:49:17;;;;;;;9.07;2.50;;;;;;;11.87;68.21;101702.78;5022696;28;20815;-59
2022/10/07 02:51:48;;;;;;;9.70;1.87;;;;;;;11.94;68.03;101688.00;5019898;28;20219;-59
2022/10/07 02:54:20;;;;;;;4.77;1.60;;;;;;;12.02;67.71;101694.38;5023639;28;20212;-60
2022/10/07 02:56:49;;;;;;;9.87;1.63;;;;;;;12.04;67.75;101695.09;5022655;28;20263;-60
2022/10/07 02:59:20;;;;;;;5.53;1.53;;;;;;;12.09;67.27;101689.38;5017552;28;20653;-60
2022/10/07 03:01:53;;;;;;;6.00;1.53;;;;;;;12.09;67.05;101688.53;5020502;28;20212;-62
2022/10/07 03:04:22;;;;;;;6.23;1.27;;;;;;;12.02;67.37;101683.75;5019093;28;20212;-60
2022/10/07 03:06:49;;;;;;;6.33;1.50;;;;;;;11.94;68.25;101688.00;5017167;28;20283;-59
2022/10/07 03:09:17;;;;;;;6.60;1.70;;;;;;;11.96;68.49;101683.41;5018534;28;20220;-60
2022/10/07 03:11:45;;;;;;;7.73;2.00;;;;;;;11.97;68.04;101685.91;5021550;28;20232;-59
2022/10/07 03:14:12;;;;;;;8.47;2.43;;;;;;;11.97;68.17;101687.72;5016218;28;20273;-61
2022/10/07 03:16:41;;;;;;;9.50;1.80;;;;;;;11.86;68.70;101682.47;5021311;28;20205;-59
2022/10/07 03:19:09;;;;;;;7.13;1.90;;;;;;;11.80;68.95;101681.16;5024818;28;20212;-61
2022/10/07 03:21:39;;;;;;;6.23;1.67;;;;;;;11.79;69.17;101673.31;5020728;28;20453;-60
2022/10/07 03:24:07;;;;;;;4.17;1.43;;;;;;;11.82;68.88;101681.03;5021411;28;20582;-61
2022/10/07 03:26:35;;;;;;;7.30;1.83;;;;;;;11.84;69.12;101673.78;5021492;28;20216;-61
2022/10/07 03:29:04;;;;;;;9.07;1.63;;;;;;;11.83;68.95;101675.59;5028467;28;20276;-61
2022/10/07 03:31:31;;;;;;;9.83;1.60;;;;;;;11.75;69.10;101671.88;5025782;28;20227;-60
2022/10/07 03:34:00;;;;;;;7.27;1.70;;;;;;;11.76;69.19;101684.22;5023629;28;20289;-60
2022/10/07 03:36:29;;;;;;;5.27;1.37;;;;;;;11.75;69.35;101682.50;5026711;28;20217;-60
2022/10/07 03:38:57;;;;;;;3.63;1.27;;;;;;;11.77;69.34;101664.63;5025712;28;20222;-61
2022/10/07 03:41:25;;;;;;;6.13;1.30;;;;;;;11.80;69.46;101665.22;5024140;28;20319;-61
2022/10/07 03:43:56;;;;;;;10.97;1.63;;;;;;;11.73;70.00;101660.50;5027771;28;20647;-60
2022/10/07 03:46:23;;;;;;;4.17;1.30;;;;;;;11.79;70.11;101662.66;5027495;28;20212;-60
2022/10/07 03:48:52;;;;;;;8.80;1.50;;;;;;;11.73;70.21;101656.03;5029344;28;20219;-60
2022/10/07 03:51:21;;;;;;;8.47;2.00;;;;;;;11.75;70.05;101662.09;5028671;28;20232;-61
2022/10/07 03:53:48;;;;;;;6.67;1.20;;;;;;;11.70;69.96;101664.25;5019479;28;20224;-59
2022/10/07 03:56:16;;;;;;;8.03;1.60;;;;;;;11.79;69.64;101654.69;5028804;28;20224;-60
2022/10/07 03:58:44;;;;;;;5.77;1.60;;;;;;;11.76;69.81;101653.16;5030086;28;20239;-62
2022/10/07 04:01:13;;;;;;;7.53;1.60;;;;;;;11.87;69.45;101654.94;5025954;28;20282;-61
2022/10/07 04:03:41;;;;;;;4.00;1.60;;;;;;;11.93;68.87;101649.09;5027606;28;20261;-60
2022/10/07 04:06:09;;;;;;;9.83;2.20;;;;;;;12.06;68.30;101655.06;5026848;28;20204;-61
2022/10/07 04:08:39;;;;;;;14.23;2.23;;;;;;;11.99;68.72;101649.41;5025989;28;20274;-60
2022/10/07 04:11:07;;;;;;;6.77;2.00;;;;;;;11.93;69.11;101644.63;5021936;28;20238;-63
2022/10/07 04:13:35;;;;;;;10.97;2.50;;;;;;;11.93;68.98;101643.78;5022569;28;20210;-60
2022/10/07 04:16:07;;;;;;;12.00;2.50;;;;;;;11.86;69.55;101642.63;5018906;28;20215;-61
2022/10/07 04:18:35;;;;;;;13.40;2.73;;;;;;;11.77;70.14;101635.41;5021721;28;20661;-62
2022/10/07 04:21:02;;;;;;;7.03;2.13;;;;;;;11.78;70.38;101637.09;5022727;28;20232;-61
2022/10/07 04:23:30;;;;;;;10.20;2.30;;;;;;;11.80;70.47;101638.63;5021027;28;20212;-61
2022/10/07 04:25:59;;;;;;;6.53;1.90;;;;;;;11.86;70.39;101637.31;5018509;28;20222;-60
2022/10/07 04:28:27;;;;;;;7.47;2.07;;;;;;;11.82;70.62;101641.16;5021426;28;20947;-61
2022/10/07 04:30:54;;;;;;;5.73;1.70;;;;;;;11.80;71.03;101630.66;5017928;28;20209;-60
2022/10/07 04:33:23;;;;;;;7.43;2.10;;;;;;;11.94;70.56;101634.84;5022771;28;20622;-63
2022/10/07 04:35:51;;;;;;;8.87;2.40;;;;;;;11.93;70.25;101628.69;5019574;28;20351;-62
2022/10/07 04:38:19;;;;;;;6.63;1.80;;;;;;;11.90;70.75;101633.41;5019493;28;20212;-61
2022/10/07 04:40:50;;;;;;;5.43;2.50;;;;;;;12.01;70.19;101625.38;5017093;28;20239;-61
2022/10/07 04:43:22;;;;;;;8.13;2.30;;;;;;;11.93;70.52;101622.50;5019986;28;20240;-61
2022/10/07 04:45:52;;;;;;;5.37;1.60;;;;;;;11.89;70.65;101623.72;5017894;28;20270;-62
2022/10/07 04:48:21;;;;;;;8.23;2.53;;;;;;;11.88;70.95;101617.56;5020268;28;20209;-62
2022/10/07 04:50:50;;;;;;;5.40;1.70;;;;;;;11.87;71.40;101623.03;5019308;28;20262;-60
2022/10/07 04:53:18;;;;;;;10.10;1.90;;;;;;;11.87;71.52;101629.19;5018570;28;20208;-61
2022/10/07 04:55:48;;;;;;;6.87;1.90;;;;;;;11.82;71.69;101619.91;5014977;28;20876;-60
2022/10/07 04:58:17;;;;;;;5.00;2.30;;;;;;;11.83;71.80;101613.63;5018315;28;20219;-61
2022/10/07 05:00:48;;;;;;;8.03;2.17;;;;;;;11.87;71.69;101607.94;5015042;28;20232;-62
2022/10/07 05:03:17;;;;;;;9.80;2.43;;;;;;;11.90;71.42;101606.81;5016391;28;20582;-62
2022/10/07 05:05:47;;;;;;;7.57;2.30;;;;;;;11.90;71.93;101606.81;5017381;28;20208;-61
2022/10/07 05:08:17;;;;;;;9.33;2.27;;;;;;;11.90;71.87;101612.97;5019492;28;21097;-61
2022/10/07 05:10:45;;;;;;;9.57;2.63;;;;;;;11.84;72.23;101608.19;5016056;28;20201;-60
2022/10/07 05:13:15;;;;;;;9.30;3.00;;;;;;;11.86;72.25;101603.59;5021357;28;20258;-60
2022/10/07 05:15:52;;;;;;;9.73;3.13;;;;;;;11.92;72.31;101599.56;5017238;28;20236;-62
2022/10/07 05:18:22;;;;;;;7.40;2.47;;;;;;;11.94;72.08;101598.47;5019187;28;20290;-61
2022/10/07 05:20:50;;;;;;;10.03;2.37;;;;;;;11.93;72.55;101590.63;5021717;28;20229;-61
2022/10/07 05:23:20;;;;;;;7.00;2.97;;;;;;;11.93;72.47;101590.63;5022138;28;20221;-61
2022/10/07 05:25:59;;;;;;;11.40;2.80;;;;;;;11.91;72.64;101597.88;5018053;28;20661;-61
2022/10/07 05:28:26;;;;;;;7.17;2.00;;;;;;;11.93;72.47;101594.13;5019457;28;20274;-61
2022/10/07 05:31:04;;;;;;;9.57;3.47;;;;;;;11.98;72.47;101599.88;5014603;28;20219;-60
2022/10/07 05:33:32;;;;;;;8.23;2.53;;;;;;;12.00;72.20;101597.09;5020239;28;20213;-61
2022/10/07 05:36:00;;;;;;;7.63;2.30;;;;;;;12.01;72.36;101593.47;5020111;28;20237;-60
2022/10/07 05:38:28;;;;;;;9.88;2.97;;;;;;;12.04;72.62;101593.22;5021863;28;20520;-67
2022/10/07 05:40:58;;;;;;;12.87;2.43;;;;;;;12.11;72.28;101594.38;5018984;28;20237;-67
2022/10/07 05:43:26;;;;;;;12.40;2.70;;;;;;;12.14;71.90;101587.97;5017548;28;20249;-66
2022/10/07 05:46:00;;;;;;;11.37;2.50;;;;;;;12.18;71.83;101587.56;5018195;28;20204;-67
2022/10/07 05:48:30;;;;;;;8.27;2.53;;;;;;;12.23;71.66;101582.66;5020794;28;20218;-67
2022/10/07 05:51:06;;;;;;;6.00;2.00;;;;;;;12.28;71.33;101583.13;5019109;28;20209;-66
2022/10/07 05:53:34;;;;;;;5.13;1.70;;;;;;;12.31;71.18;101580.19;5018169;28;20215;-68
2022/10/07 05:56:05;;;;;;;12.53;2.30;;;;;;;12.36;70.82;101575.34;5020017;28;20217;-67
2022/10/07 05:58:34;;;;;;;8.70;1.77;;;;;;;12.33;71.08;101580.91;5020279;28;20225;-68
2022/10/07 06:01:05;;;;;;;6.00;1.83;;;;;;;12.32;70.81;101581.03;5017873;28;20236;-68
2022/10/07 06:03:42;;;;;;;5.60;1.80;;;;;;;12.33;70.79;101580.91;5020868;28;20236;-67
2022/10/07 06:06:10;;;;;;;13.87;2.10;;;;;;;12.39;70.77;101582.22;5017100;28;20802;-69
2022/10/07 06:08:37;;;;;;;9.00;2.60;;;;;;;12.42;70.42;101581.94;5019934;28;20255;-67
2022/10/07 06:13:54;;;;;;;9.93;2.43;;;;;;;12.41;70.55;101573.09;5024019;28;20701;-66
2022/10/07 06:16:22;;;;;;;9.90;2.70;;;;;;;12.49;70.22;101568.97;5021184;28;20814;-66
2022/10/07 06:18:51;;;;;;;8.70;2.43;;;;;;;12.54;70.04;101574.72;5021437;28;20233;-66
2022/10/07 06:21:20;;;;;;;7.50;2.50;;;;;;;12.59;69.79;101577.78;5022762;28;20232;-66
2022/10/07 06:23:51;;;;;;;8.20;2.33;;;;;;;12.66;69.26;101574.50;5025269;28;20213;-66
2022/10/07 06:26:20;;;;;;;12.53;2.47;;;;;;;12.59;69.68;101583.97;5027064;28;20293;-67
2022/10/07 06:28:47;;;;;;;9.47;2.47;;;;;;;12.68;69.29;101584.97;5024362;28;20715;-69
2022/10/07 06:31:21;;;;;;;7.33;2.40;;;;;;;12.64;69.49;101578.25;5026529;28;20201;-67
2022/10/07 06:33:49;;;;;;;6.67;2.43;;;;;;;12.68;69.60;101579.66;5026312;28;20209;-67
2022/10/07 06:36:18;;;;;;;12.00;3.10;;;;;;;12.72;69.17;101583.75;5025957;28;20688;-67
2022/10/07 06:38:47;;;;;;;10.83;3.30;;;;;;;12.70;69.61;101580.38;5025336;28;20209;-68
2022/10/07 06:41:15;;;;;;;10.43;2.20;;;;;;;12.71;69.37;101577.56;5022935;28;20216;-67
2022/10/07 06:43:44;;;;;;;8.90;3.00;;;;;;;12.76;69.34;101585.97;5023929;28;20236;-67
2022/10/07 06:46:14;;;;;;;12.57;2.97;;;;;;;12.69;69.82;101578.69;5023437;28;20303;-67
2022/10/07 06:48:43;;;;;;;9.00;2.80;;;;;;;12.64;70.03;101591.56;5026005;28;20216;-67
2022/10/07 06:51:14;;;;;;;11.30;2.33;;;;;;;12.68;69.94;101590.28;5025875;28;20207;-68
2022/10/07 06:53:43;;;;;;;8.83;2.80;;;;;;;12.75;69.67;101588.81;5020372;28;20373;-68
2022/10/07 06:56:13;;;;;;;11.07;2.97;;;;;;;12.67;70.08;101596.59;5020334;28;20248;-68
2022/10/07 06:58:42;;;;;;;11.33;2.40;;;;;;;12.68;69.97;101596.47;5025859;28;20220;-67
2022/10/07 07:01:10;;;;;;;10.37;2.40;;;;;;;12.74;69.64;101600.44;5021200;28;20288;-66
2022/10/07 07:03:38;;;;;;;10.40;2.40;;;;;;;12.76;69.12;101590.47;5025339;28;20251;-66
2022/10/07 07:06:09;;;;;;;8.87;2.30;;;;;;;12.76;69.16;101590.47;5023381;28;20213;-66
2022/10/07 07:08:39;;;;;;;10.37;2.67;;;;;;;12.81;68.93;101593.56;5020564;28;20217;-66
2022/10/07 07:13:52;;;;;;;11.07;2.50;;;;;;;12.67;69.39;101589.44;5022466;28;20415;-66
2022/10/07 07:16:19;;;;;;;10.70;2.60;;;;;;;12.72;69.11;101589.06;5022277;28;20217;-66
2022/10/07 07:18:50;;;;;;;18.03;2.80;;;;;;;12.70;69.29;101585.69;5026420;28;20208;-68
2022/10/07 07:21:18;;;;;;;7.97;2.27;;;;;;;12.70;69.53;101594.50;5023354;28;20212;-67
2022/10/07 07:23:46;;;;;;;8.10;2.10;;;;;;;12.77;69.39;101584.16;5023919;28;20225;-67
2022/10/07 07:26:15;;;;;;;9.53;2.50;;;;;;;12.86;69.27;101580.69;5026380;28;20607;-67
2022/10/07 07:28:43;;;;;;;10.43;2.67;;;;;;;12.91;68.55;101575.81;5025354;28;20213;-67
2022/10/07 07:31:12;;;;;;;14.00;2.20;;;;;;;13.01;68.27;101581.16;5024145;28;20208;-65
2022/10/07 07:33:40;;;;;;;7.77;2.23;;;;;;;13.06;67.74;101579.75;5028262;28;20209;-66
2022/10/07 07:36:15;;;;;;;6.37;2.53;;;;;;;13.08;67.67;101576.97;5022807;28;20225;-66
2022/10/07 07:38:42;;;;;;;9.73;3.00;;;;;;;13.11;67.49;101574.84;5021145;28;20255;-67
2022/10/07 07:41:10;;;;;;;5.30;2.00;;;;;;;13.17;67.16;101576.19;5026017;28;20219;-67
2022/10/07 07:43:39;;;;;;;9.70;2.30;;;;;;;13.26;67.10;101570.03;5017587;28;20926;-66
2022/10/07 07:46:07;;;;;;;6.10;2.00;;;;;;;13.28;67.09;101573.38;5019090;28;20221;-68
2022/10/07 07:48:35;;;;;;;12.40;2.80;;;;;;;13.33;66.88;101575.63;5023799;28;20537;-67
2022/10/07 07:51:05;;;;;;;10.00;2.37;;;;;;;13.41;66.95;101570.44;5024766;28;20217;-67
2022/10/07 07:53:34;;;;;;;11.10;2.80;;;;;;;13.50;66.63;101572.28;5026175;28;20260;-67
2022/10/07 07:56:02;;;;;;;16.77;3.10;;;;;;;13.47;67.13;101572.53;5029437;28;20562;-67
2022/10/07 07:58:29;;;;;;;11.00;2.67;;;;;;;13.52;67.15;101570.31;5024663;28;20247;-64
2022/10/07 08:01:00;;;;;;;10.97;3.13;;;;;;;13.56;66.77;101569.03;5023572;28;20665;-63
2022/10/07 08:03:27;;;;;;;7.80;2.67;;;;;;;13.58;66.64;101572.41;5024340;28;20323;-64
2022/10/07 08:05:55;;;;;;;8.70;2.87;;;;;;;13.60;66.43;101569.59;5020689;28;20213;-65
2022/10/07 08:08:23;;;;;;;12.57;3.20;;;;;;;13.66;66.09;101569.88;5027910;28;20205;-64
2022/10/07 08:10:51;;;;;;;15.37;3.90;;;;;;;13.67;66.60;101571.56;5021093;28;20592;-64
2022/10/07 08:13:19;;;;;;;9.33;3.20;;;;;;;13.80;65.97;101564.13;5028942;28;20274;-63
2022/10/07 08:15:47;;;;;;;17.37;3.33;;;;;;;13.87;65.76;101565.22;5024824;28;20664;-64
2022/10/07 08:18:16;;;;;;;9.03;3.40;;;;;;;13.96;65.65;101568.03;5027553;28;20214;-63
2022/10/07 08:20:45;;;;;;;10.63;2.77;;;;;;;13.96;65.49;101563.53;5016668;28;20243;-64
2022/10/07 08:23:13;;;;;;;11.57;3.57;;;;;;;14.01;65.40;101557.75;5026980;28;20226;-63
2022/10/07 08:25:42;;;;;;;12.03;3.10;;;;;;;14.07;65.56;101559.88;5024451;28;20205;-63
2022/10/07 08:28:10;;;;;;;10.07;2.63;;;;;;;14.19;65.29;101561.34;5025215;28;20212;-65
2022/10/07 08:30:38;;;;;;;7.00;2.40;;;;;;;14.26;64.90;101567.78;5022876;28;20623;-64
2022/10/07 08:33:05;;;;;;;11.90;2.80;;;;;;;14.38;64.04;101560.44;5029030;28;20210;-65
2022/10/07 08:35:34;;;;;;;14.73;3.73;;;;;;;14.55;63.39;101562.38;5024228;28;20214;-64
2022/10/07 08:38:02;;;;;;;9.87;2.80;;;;;;;14.63;62.97;101549.13;5025244;28;20212;-65
2022/10/07 08:40:30;;;;;;;10.13;2.70;;;;;;;14.67;62.93;101551.38;5023695;28;22536;-65
2022/10/07 08:42:58;;;;;;;7.80;2.77;;;;;;;14.92;62.54;101547.16;5015171;28;20243;-65
2022/10/07 08:45:30;;;;;;;6.63;2.30;;;;;;;16.67;58.26;101537.28;5019686;28;20248;-65
2022/10/07 08:48:03;;;;;;;6.87;2.43;;;;;;;19.72;49.22;101534.19;5021390;28;20205;-65
2022/10/07 08:50:41;;;;;;;10.53;2.60;;;;;;;22.32;41.69;101531.34;5021198;28;20216;-65
2022/10/07 08:53:19;;;;;;;9.00;2.80;;;;;;;23.46;39.21;101518.84;5025563;28;20693;-65
2022/10/07 08:55:51;;;;;;;12.43;2.90;;;;;;;24.32;37.91;101524.22;5018602;28;20639;-65
2022/10/07 08:58:39;;;;;;;11.20;3.00;;;;;;;26.27;34.36;101517.91;5026183;28;20209;-65
2022/10/07 09:01:18;;;;;;;8.02;2.78;;;;;;;27.66;32.03;101507.59;5026280;28;20211;-64
2022/10/07 09:03:55;;;;;;;8.38;2.40;;;;;;;26.77;33.50;101516.66;5019114;28;20213;-66
2022/10/07 09:06:28;;;;;;;7.70;2.38;;;;;;;25.75;35.16;101517.38;5021482;28;20220;-65
2022/10/07 09:09:02;;;;;;;8.90;2.63;;;;;;;24.30;37.48;101505.44;5023884;28;20232;-64
2022/10/07 09:11:32;;;;;;;9.65;2.67;;;;;;;23.11;39.72;101503.81;5025856;28;20262;-65
2022/10/07 09:14:08;;;;;;;10.93;3.65;;;;;;;22.04;41.58;101504.38;5026102;28;20201;-63
2022/10/07 09:16:42;;;;;;;8.75;2.47;;;;;;;21.20;43.27;101508.00;5015793;28;20825;-65
2022/10/07 09:19:17;;;;;;;9.48;2.25;;;;;;;20.49;44.32;101504.31;5018164;28;20204;-65
2022/10/07 09:21:50;;;;;;;10.57;2.65;;;;;;;20.02;46.24;101502.78;5018509;28;20216;-63
2022/10/07 09:24:20;;;;;;;5.43;2.20;;;;;;;19.80;46.61;101499.13;5025033;28;20299;-64
2022/10/07 09:26:48;;;;;;;8.45;2.58;;;;;;;20.16;46.10;101493.03;5018681;28;20263;-65
2022/10/07 09:29:19;;;;;;;11.05;2.75;;;;;;;21.64;43.10;101478.91;5023191;28;20637;-65
2022/10/07 09:31:48;;;;;;;8.48;2.38;;;;;;;22.45;41.14;101474.66;5021864;28;20271;-64
2022/10/07 09:34:21;;;;;;;5.88;2.40;;;;;;;22.29;41.29;101477.69;5023788;28;20259;-65
2022/10/07 09:37:20;;;;;;;10.43;2.35;;;;;;;22.18;41.54;101480.13;5019097;28;20653;-65
2022/10/07 09:39:49;;;;;;;7.53;2.20;;;;;;;21.79;42.26;101473.44;5022184;28;20288;-64
2022/10/07 09:42:35;;;;;;;8.82;2.17;;;;;;;21.36;43.11;101470.84;5026282;28;20662;-64
2022/10/07 09:45:17;;;;;;;8.95;2.75;;;;;;;21.14;43.77;101466.44;5026088;28;20720;-65
2022/10/07 09:47:51;;;;;;;8.82;2.33;;;;;;;20.92;44.09;101456.69;5025779;28;20204;-64
2022/10/07 09:50:32;;;;;;;8.45;2.30;;;;;;;20.69;44.42;101464.94;5021789;28;20227;-64
2022/10/07 09:53:01;;;;;;;8.75;3.03;;;;;;;20.25;45.40;101470.38;5022795;28;20266;-65
2022/10/07 09:55:36;;;;;;;9.15;2.47;;;;;;;19.85;46.52;101475.22;5026745;28;20216;-66
2022/10/07 09:58:06;;;;;;;7.45;2.08;;;;;;;19.37;47.70;101464.88;5024726;28;20222;-64
2022/10/07 10:00:42;;;;;;;9.63;2.58;;;;;;;18.96;48.46;101467.06;5018191;28;20213;-66
2022/10/07 10:03:10;;;;;;;9.57;2.77;;;;;;;18.63;49.66;101471.78;5020702;28;20244;-64
2022/10/07 10:05:41;;;;;;;11.43;3.00;;;;;;;18.38;50.33;101463.00;5018844;28;20621;-63
2022/10/07 10:08:23;;;;;;;8.33;2.97;;;;;;;18.17;50.89;101460.91;5021266;28;20208;-65
2022/10/07 10:10:53;;;;;;;9.03;2.57;;;;;;;18.12;51.13;101455.19;5022071;28;20633;-66
2022/10/07 10:13:31;;;;;;;13.47;2.90;;;;;;;18.05;51.44;101456.91;5021438;28;20209;-67
2022/10/07 10:16:00;;;;;;;10.10;2.33;;;;;;;17.97;51.02;101454.25;5025691;28;20212;-65
2022/10/07 10:18:32;;;;;;;7.40;1.70;;;;;;;17.99;51.44;101444.19;5022010;28;20647;-64
2022/10/07 10:21:20;;;;;;;8.40;2.43;;;;;;;18.14;51.16;101444.28;5022982;28;20650;-64
2022/10/07 10:23:51;;;;;;;8.87;2.20;;;;;;;18.13;51.34;101443.44;5021684;28;20294;-64
2022/10/07 10:26:29;;;;;;;6.93;2.73;;;;;;;18.07;51.57;101441.47;5026016;28;20209;-63
2022/10/07 10:29:15;;;;;;;12.20;2.87;;;;;;;17.96;52.01;101444.53;5025722;28;20354;-64
2022/10/07 10:32:19;;;;;;;5.87;2.30;;;;;;;17.81;53.34;101439.03;5015791;28;20224;-64
2022/10/07 10:34:54;;;;;;;12.87;2.87;;;;;;;18.20;52.02;101433.72;5012454;28;20204;-66
2022/10/07 10:37:27;;;;;;;10.30;2.57;;;;;;;18.63;50.51;101418.91;5030525;28;20204;-64
2022/10/07 10:40:08;;;;;;;10.80;3.10;;;;;;;18.80;49.66;101419.63;5029122;28;20220;-65
2022/10/07 10:42:43;;;;;;;10.43;2.37;;;;;;;18.66;50.14;101415.00;5028575;28;20303;-64
2022/10/07 10:45:32;;;;;;;14.60;3.30;;;;;;;18.57;50.43;101413.38;5023386;28;20240;-64
2022/10/07 10:48:28;;;;;;;9.83;2.70;;;;;;;18.37;50.53;101410.31;5027755;28;20212;-64
2022/10/07 10:51:05;;;;;;;8.23;2.37;;;;;;;18.20;51.29;101404.19;5025898;28;20201;-64
2022/10/07 10:53:47;;;;;;;13.63;3.60;;;;;;;18.12;52.40;101398.03;5026055;28;20204;-65
2022/10/07 10:56:28;;;;;;;11.47;2.77;;;;;;;18.14;52.23;101387.91;5027277;28;20213;-66
2022/10/07 10:59:10;;;;;;;12.37;2.83;;;;;;;18.23;52.39;101387.72;5019854;28;20236;-63
2022/10/07 11:01:39;;;;;;;19.03;3.90;;;;;;;18.24;52.34;101378.66;5024088;28;20205;-64
2022/10/07 11:04:27;;;;;;;10.63;3.47;;;;;;;18.34;52.61;101370.38;5025570;28;20459;-63
2022/10/07 11:07:00;;;;;;;13.40;3.53;;;;;;;18.40;52.49;101373.19;5026593;28;20204;-69
2022/10/07 11:09:35;;;;;;;10.63;2.77;;;;;;;18.56;53.08;101368.72;5024719;28;20247;-64
2022/10/07 11:12:23;;;;;;;11.13;3.53;;;;;;;19.07;51.92;101367.19;5024581;28;21110;-65
2022/10/07 11:14:56;;;;;;;14.87;3.50;;;;;;;20.15;49.22;101365.63;5024771;28;20218;-64
2022/10/07 11:17:30;;;;;;;10.17;3.40;;;;;;;21.48;46.03;101362.34;5026288;28;20216;-65
2022/10/07 11:20:07;;;;;;;12.87;3.20;;;;;;;22.36;43.13;101353.44;5027945;28;20701;-64
2022/10/07 11:22:41;;;;;;;14.10;3.20;;;;;;;22.59;42.73;101345.81;5026515;28;20212;-64
2022/10/07 11:25:27;;;;;;;7.83;2.73;;;;;;;23.32;40.48;101349.34;5025698;28;20256;-64
2022/10/07 11:28:14;;;;;;;8.85;2.83;;;;;;;23.38;39.90;101337.69;5022537;28;20216;-64
2022/10/07 11:30:50;;;;;;;11.48;2.95;;;;;;;22.94;40.81;101338.38;5021492;28;20208;-65
2022/10/07 11:33:26;;;;;;;6.10;2.60;;;;;;;22.60;41.79;101339.38;5023229;28;20290;-64
2022/10/07 11:35:59;;;;;;;11.85;3.17;;;;;;;22.13;42.78;101342.97;5022789;28;20600;-65
2022/10/07 11:38:32;;;;;;;11.13;3.15;;;;;;;21.91;43.36;101334.13;5020220;28;20204;-65
2022/10/07 11:41:07;;;;;;;12.32;3.00;;;;;;;21.66;43.58;101327.56;5026050;28;20216;-64
2022/10/07 11:43:44;;;;;;;11.15;3.47;;;;;;;21.34;44.07;101321.81;5025667;28;20244;-64
2022/10/07 11:46:18;;;;;;;11.35;3.15;;;;;;;21.06;44.42;101320.13;5025163;28;20239;-64
2022/10/07 11:48:49;;;;;;;8.98;3.00;;;;;;;20.97;45.61;101309.47;5023059;28;20201;-65